sensor_id;sensor_type;location;lat;lon;timestamp;pressure;altitude;pressure_sealevel;temperature;humidity
6389;BME280;3227;42.654;23.360;2023-01-28T00:00:47;93770.72;;;3.62;81.59
6389;BME280;3227;42.654;23.360;2023-01-28T00:03:14;93772.41;;;3.61;81.77
6389;BME280;3227;42.654;23.360;2023-01-28T00:05:42;93779.94;;;3.57;82.40
6389;BME280;3227;42.654;23.360;2023-01-28T00:08:09;93693.94;;;3.05;82.43
6389;BME280;3227;42.654;23.360;2023-01-28T00:10:38;93730.47;;;3.21;81.98
6389;BME280;3227;42.654;23.360;2023-01-28T00:13:05;93789.03;;;3.42;82.59
6389;BME280;3227;42.654;23.360;2023-01-28T00:15:31;93787.47;;;3.52;82.56
6389;BME280;3227;42.654;23.360;2023-01-28T00:17:58;93789.88;;;3.43;81.64
6389;BME280;3227;42.654;23.360;2023-01-28T00:20:25;93785.63;;;3.42;82.85
6389;BME280;3227;42.654;23.360;2023-01-28T00:22:53;93794.00;;;3.38;82.39
6389;BME280;3227;42.654;23.360;2023-01-28T00:25:20;93790.63;;;3.36;81.06
6389;BME280;3227;42.654;23.360;2023-01-28T00:27:48;93791.88;;;3.10;82.58
6389;BME280;3227;42.654;23.360;2023-01-28T00:30:15;93790.91;;;3.01;84.33
6389;BME280;3227;42.654;23.360;2023-01-28T00:32:42;93793.50;;;3.06;84.62
6389;BME280;3227;42.654;23.360;2023-01-28T00:35:09;93797.16;;;3.23;84.23
6389;BME280;3227;42.654;23.360;2023-01-28T00:37:35;93804.94;;;3.35;84.53
6389;BME280;3227;42.654;23.360;2023-01-28T00:40:04;93804.97;;;3.38;83.69
6389;BME280;3227;42.654;23.360;2023-01-28T00:42:34;93816.16;;;3.51;83.18
6389;BME280;3227;42.654;23.360;2023-01-28T00:45:01;93811.88;;;3.49;82.60
6389;BME280;3227;42.654;23.360;2023-01-28T00:47:28;93821.31;;;3.57;82.80
6389;BME280;3227;42.654;23.360;2023-01-28T00:49:55;93800.75;;;3.36;81.10
6389;BME280;3227;42.654;23.360;2023-01-28T00:52:22;93815.91;;;3.34;82.42
6389;BME280;3227;42.654;23.360;2023-01-28T00:54:49;93811.72;;;3.38;82.59
6389;BME280;3227;42.654;23.360;2023-01-28T00:57:17;93812.53;;;3.34;82.08
6389;BME280;3227;42.654;23.360;2023-01-28T00:59:44;93810.66;;;3.24;82.56
6389;BME280;3227;42.654;23.360;2023-01-28T01:02:10;93818.34;;;3.30;82.92
6389;BME280;3227;42.654;23.360;2023-01-28T01:04:37;93813.97;;;3.18;82.93
6389;BME280;3227;42.654;23.360;2023-01-28T01:07:04;93813.88;;;3.14;82.88
6389;BME280;3227;42.654;23.360;2023-01-28T01:09:31;93815.78;;;3.27;83.05
6389;BME280;3227;42.654;23.360;2023-01-28T01:11:58;93818.16;;;3.18;81.25
6389;BME280;3227;42.654;23.360;2023-01-28T01:14:26;93809.56;;;3.08;82.66
6389;BME280;3227;42.654;23.360;2023-01-28T01:16:53;93807.78;;;3.01;82.19
6389;BME280;3227;42.654;23.360;2023-01-28T01:19:20;93788.00;;;2.80;83.52
6389;BME280;3227;42.654;23.360;2023-01-28T01:21:47;93813.09;;;3.18;83.21
6389;BME280;3227;42.654;23.360;2023-01-28T01:24:15;93817.38;;;3.22;83.30
6389;BME280;3227;42.654;23.360;2023-01-28T01:26:42;93746.72;;;2.81;82.47
6389;BME280;3227;42.654;23.360;2023-01-28T01:29:09;93820.00;;;3.26;83.49
6389;BME280;3227;42.654;23.360;2023-01-28T01:31:37;93817.53;;;3.31;82.41
6389;BME280;3227;42.654;23.360;2023-01-28T01:34:04;93824.38;;;3.38;82.78
6389;BME280;3227;42.654;23.360;2023-01-28T01:36:31;93786.22;;;3.24;82.52
6389;BME280;3227;42.654;23.360;2023-01-28T01:39:00;93820.34;;;3.49;82.35
6389;BME280;3227;42.654;23.360;2023-01-28T01:41:29;93825.47;;;3.52;81.97
6389;BME280;3227;42.654;23.360;2023-01-28T01:43:58;93830.56;;;3.54;80.87
6389;BME280;3227;42.654;23.360;2023-01-28T01:46:33;93820.28;;;3.44;82.00
6389;BME280;3227;42.654;23.360;2023-01-28T01:49:07;93822.63;;;3.32;81.38
6389;BME280;3227;42.654;23.360;2023-01-28T01:51:39;93822.59;;;3.31;81.74
6389;BME280;3227;42.654;23.360;2023-01-28T01:54:06;93825.22;;;3.35;82.83
6389;BME280;3227;42.654;23.360;2023-01-28T01:56:37;93814.13;;;3.27;82.66
6389;BME280;3227;42.654;23.360;2023-01-28T01:59:09;93824.38;;;3.36;82.82
6389;BME280;3227;42.654;23.360;2023-01-28T02:01:38;93825.28;;;3.41;82.55
6389;BME280;3227;42.654;23.360;2023-01-28T02:04:15;93830.31;;;3.37;81.74
6389;BME280;3227;42.654;23.360;2023-01-28T02:06:43;93789.41;;;3.14;82.32
6389;BME280;3227;42.654;23.360;2023-01-28T02:09:24;93838.00;;;3.46;82.44
6389;BME280;3227;42.654;23.360;2023-01-28T02:11:53;93834.56;;;3.41;81.86
6389;BME280;3227;42.654;23.360;2023-01-28T02:14:26;93823.47;;;3.33;82.31
6389;BME280;3227;42.654;23.360;2023-01-28T02:16:54;93843.88;;;3.42;82.19
6389;BME280;3227;42.654;23.360;2023-01-28T02:19:26;93835.41;;;3.40;81.07
6389;BME280;3227;42.654;23.360;2023-01-28T02:22:13;93835.31;;;3.34;82.23
6389;BME280;3227;42.654;23.360;2023-01-28T02:25:06;93833.41;;;3.21;82.71
6389;BME280;3227;42.654;23.360;2023-01-28T02:27:50;93837.72;;;3.26;82.43
6389;BME280;3227;42.654;23.360;2023-01-28T02:30:21;93840.13;;;3.19;81.75
6389;BME280;3227;42.654;23.360;2023-01-28T02:32:52;93846.06;;;3.21;81.63
6389;BME280;3227;42.654;23.360;2023-01-28T02:35:23;93838.31;;;3.13;82.46
6389;BME280;3227;42.654;23.360;2023-01-28T02:37:58;93838.44;;;3.19;82.51
6389;BME280;3227;42.654;23.360;2023-01-28T02:40:29;93835.81;;;3.15;82.04
6389;BME280;3227;42.654;23.360;2023-01-28T02:42:59;93840.03;;;3.13;81.96
6389;BME280;3227;42.654;23.360;2023-01-28T02:45:30;93840.25;;;3.26;82.44
6389;BME280;3227;42.654;23.360;2023-01-28T02:48:19;93837.69;;;3.25;81.59
6389;BME280;3227;42.654;23.360;2023-01-28T02:50:50;93830.97;;;3.27;82.26
6389;BME280;3227;42.654;23.360;2023-01-28T02:53:26;93846.47;;;3.45;82.15
6389;BME280;3227;42.654;23.360;2023-01-28T02:56:16;93844.75;;;3.44;80.69
6389;BME280;3227;42.654;23.360;2023-01-28T02:58:55;93838.59;;;3.30;81.49
6389;BME280;3227;42.654;23.360;2023-01-28T03:01:28;93844.53;;;3.29;81.69
6389;BME280;3227;42.654;23.360;2023-01-28T03:04:06;93845.63;;;3.44;82.06
6389;BME280;3227;42.654;23.360;2023-01-28T03:06:39;93850.56;;;3.37;81.07
6389;BME280;3227;42.654;23.360;2023-01-28T03:09:09;93849.72;;;3.36;81.39
6389;BME280;3227;42.654;23.360;2023-01-28T03:11:55;93832.69;;;3.28;81.03
6389;BME280;3227;42.654;23.360;2023-01-28T03:14:44;93854.75;;;3.35;79.81
6389;BME280;3227;42.654;23.360;2023-01-28T03:17:37;93774.50;;;2.78;80.00
6389;BME280;3227;42.654;23.360;2023-01-28T03:20:26;93844.25;;;3.14;82.33
6389;BME280;3227;42.654;23.360;2023-01-28T03:23:20;93860.41;;;3.20;81.49
6389;BME280;3227;42.654;23.360;2023-01-28T03:26:06;93853.78;;;3.28;82.15
6389;BME280;3227;42.654;23.360;2023-01-28T03:28:53;93854.69;;;3.32;81.40
6389;BME280;3227;42.654;23.360;2023-01-28T03:31:42;93830.03;;;3.20;80.54
6389;BME280;3227;42.654;23.360;2023-01-28T03:34:27;93859.72;;;3.29;80.32
6389;BME280;3227;42.654;23.360;2023-01-28T03:37:12;93861.28;;;3.24;80.83
6389;BME280;3227;42.654;23.360;2023-01-28T03:39:39;93863.78;;;3.22;81.14
6389;BME280;3227;42.654;23.360;2023-01-28T03:42:09;93862.78;;;3.11;81.17
6389;BME280;3227;42.654;23.360;2023-01-28T03:44:36;93816.00;;;2.88;82.18
6389;BME280;3227;42.654;23.360;2023-01-28T03:47:18;93859.34;;;3.08;81.96
6389;BME280;3227;42.654;23.360;2023-01-28T03:49:47;93857.91;;;3.23;81.83
6389;BME280;3227;42.654;23.360;2023-01-28T03:52:15;93811.75;;;2.88;80.64
6389;BME280;3227;42.654;23.360;2023-01-28T03:54:43;93835.09;;;3.22;81.19
6389;BME280;3227;42.654;23.360;2023-01-28T03:57:12;93867.88;;;3.13;81.68
6389;BME280;3227;42.654;23.360;2023-01-28T03:59:39;93840.69;;;3.02;81.34
6389;BME280;3227;42.654;23.360;2023-01-28T04:02:07;93825.25;;;2.87;81.40
6389;BME280;3227;42.654;23.360;2023-01-28T04:04:36;93867.03;;;3.12;81.23
6389;BME280;3227;42.654;23.360;2023-01-28T04:07:04;93876.22;;;3.09;81.70
6389;BME280;3227;42.654;23.360;2023-01-28T04:09:33;93872.69;;;2.99;81.23
6389;BME280;3227;42.654;23.360;2023-01-28T04:11:59;93871.00;;;2.99;81.69
6389;BME280;3227;42.654;23.360;2023-01-28T04:14:26;93833.44;;;2.74;81.96
6389;BME280;3227;42.654;23.360;2023-01-28T04:16:54;93849.56;;;2.81;81.15
6389;BME280;3227;42.654;23.360;2023-01-28T04:19:21;93877.09;;;3.09;82.00
6389;BME280;3227;42.654;23.360;2023-01-28T04:21:49;93879.75;;;3.17;81.61
6389;BME280;3227;42.654;23.360;2023-01-28T04:24:18;93883.19;;;3.22;81.80
6389;BME280;3227;42.654;23.360;2023-01-28T04:26:45;93874.75;;;3.20;80.93
6389;BME280;3227;42.654;23.360;2023-01-28T04:29:12;93879.53;;;3.04;80.26
6389;BME280;3227;42.654;23.360;2023-01-28T04:31:38;93870.91;;;2.93;81.16
6389;BME280;3227;42.654;23.360;2023-01-28T04:34:05;93885.50;;;3.08;81.08
6389;BME280;3227;42.654;23.360;2023-01-28T04:36:33;93895.66;;;3.10;81.64
6389;BME280;3227;42.654;23.360;2023-01-28T04:39:01;93895.44;;;2.99;81.47
6389;BME280;3227;42.654;23.360;2023-01-28T04:41:28;93898.09;;;3.03;81.83
6389;BME280;3227;42.654;23.360;2023-01-28T04:43:55;93903.94;;;3.01;81.48
6389;BME280;3227;42.654;23.360;2023-01-28T04:46:22;93899.91;;;3.11;81.76
6389;BME280;3227;42.654;23.360;2023-01-28T04:48:48;93912.59;;;3.12;80.90
6389;BME280;3227;42.654;23.360;2023-01-28T04:51:15;93908.38;;;3.13;82.15
6389;BME280;3227;42.654;23.360;2023-01-28T04:53:42;93914.25;;;3.13;82.01
6389;BME280;3227;42.654;23.360;2023-01-28T04:56:10;93911.75;;;3.15;81.61
6389;BME280;3227;42.654;23.360;2023-01-28T04:58:37;93914.13;;;3.04;82.53
6389;BME280;3227;42.654;23.360;2023-01-28T05:01:04;93910.06;;;3.14;81.33
6389;BME280;3227;42.654;23.360;2023-01-28T05:03:30;93907.53;;;3.12;82.47
6389;BME280;3227;42.654;23.360;2023-01-28T05:05:57;93916.06;;;3.19;83.24
6389;BME280;3227;42.654;23.360;2023-01-28T05:08:24;93922.91;;;3.24;82.34
6389;BME280;3227;42.654;23.360;2023-01-28T05:10:51;93927.09;;;3.22;82.17
6389;BME280;3227;42.654;23.360;2023-01-28T05:13:19;93931.28;;;3.20;82.46
6389;BME280;3227;42.654;23.360;2023-01-28T05:15:50;93933.78;;;3.19;81.37
6389;BME280;3227;42.654;23.360;2023-01-28T05:18:17;93931.06;;;3.08;82.21
6389;BME280;3227;42.654;23.360;2023-01-28T05:20:44;93928.50;;;3.06;82.30
6389;BME280;3227;42.654;23.360;2023-01-28T05:23:11;93936.03;;;3.03;81.65
6389;BME280;3227;42.654;23.360;2023-01-28T05:25:39;93937.66;;;3.00;82.01
6389;BME280;3227;42.654;23.360;2023-01-28T05:28:05;93915.50;;;2.88;82.35
6389;BME280;3227;42.654;23.360;2023-01-28T05:30:33;93943.63;;;3.03;82.15
6389;BME280;3227;42.654;23.360;2023-01-28T05:33:00;93944.66;;;3.15;82.04
6389;BME280;3227;42.654;23.360;2023-01-28T05:35:27;93940.47;;;3.15;81.71
6389;BME280;3227;42.654;23.360;2023-01-28T05:37:54;93949.88;;;3.21;81.98
6389;BME280;3227;42.654;23.360;2023-01-28T05:40:21;93949.09;;;3.26;81.41
6389;BME280;3227;42.654;23.360;2023-01-28T05:42:47;93948.16;;;3.20;80.32
6389;BME280;3227;42.654;23.360;2023-01-28T05:45:14;93948.91;;;3.16;83.55
6389;BME280;3227;42.654;23.360;2023-01-28T05:47:42;93952.56;;;3.31;82.72
6389;BME280;3227;42.654;23.360;2023-01-28T05:50:12;93952.78;;;3.43;79.87
6389;BME280;3227;42.654;23.360;2023-01-28T05:52:39;93956.19;;;3.44;80.44
6389;BME280;3227;42.654;23.360;2023-01-28T05:55:07;93952.66;;;3.36;80.04
6389;BME280;3227;42.654;23.360;2023-01-28T05:57:34;93956.81;;;3.32;79.55
6389;BME280;3227;42.654;23.360;2023-01-28T06:00:00;93947.34;;;3.21;80.52
6389;BME280;3227;42.654;23.360;2023-01-28T06:02:27;93969.22;;;3.19;80.14
6389;BME280;3227;42.654;23.360;2023-01-28T06:04:55;93974.50;;;3.31;80.09
6389;BME280;3227;42.654;23.360;2023-01-28T06:07:22;93973.81;;;3.39;80.07
6389;BME280;3227;42.654;23.360;2023-01-28T06:09:49;93973.59;;;3.27;79.84
6389;BME280;3227;42.654;23.360;2023-01-28T06:12:16;93985.63;;;3.37;79.84
6389;BME280;3227;42.654;23.360;2023-01-28T06:14:42;93985.44;;;3.28;79.22
6389;BME280;3227;42.654;23.360;2023-01-28T06:17:10;93995.41;;;3.19;79.01
6389;BME280;3227;42.654;23.360;2023-01-28T06:19:37;93996.97;;;3.14;79.09
6389;BME280;3227;42.654;23.360;2023-01-28T06:22:05;93996.81;;;3.06;80.23
6389;BME280;3227;42.654;23.360;2023-01-28T06:24:32;94001.03;;;3.06;80.38
6389;BME280;3227;42.654;23.360;2023-01-28T06:26:59;94012.69;;;2.98;80.80
6389;BME280;3227;42.654;23.360;2023-01-28T06:29:26;94011.81;;;2.96;80.48
6389;BME280;3227;42.654;23.360;2023-01-28T06:31:52;94001.84;;;3.05;80.91
6389;BME280;3227;42.654;23.360;2023-01-28T06:34:19;94017.25;;;3.16;79.78
6389;BME280;3227;42.654;23.360;2023-01-28T06:36:46;94006.13;;;3.08;80.24
6389;BME280;3227;42.654;23.360;2023-01-28T06:39:14;94019.06;;;3.23;80.28
6389;BME280;3227;42.654;23.360;2023-01-28T06:41:41;94021.59;;;3.23;79.99
6389;BME280;3227;42.654;23.360;2023-01-28T06:44:08;94024.94;;;3.22;79.56
6389;BME280;3227;42.654;23.360;2023-01-28T06:46:34;94028.22;;;3.16;79.27
6389;BME280;3227;42.654;23.360;2023-01-28T06:49:01;94033.22;;;3.12;79.68
6389;BME280;3227;42.654;23.360;2023-01-28T06:51:28;94034.94;;;3.13;80.22
6389;BME280;3227;42.654;23.360;2023-01-28T06:53:55;94041.53;;;3.06;79.98
6389;BME280;3227;42.654;23.360;2023-01-28T06:56:23;94043.47;;;3.18;80.81
6389;BME280;3227;42.654;23.360;2023-01-28T06:58:50;94044.34;;;3.21;79.33
6389;BME280;3227;42.654;23.360;2023-01-28T07:01:17;94049.34;;;3.17;79.95
6389;BME280;3227;42.654;23.360;2023-01-28T07:03:44;94048.66;;;3.25;80.06
6389;BME280;3227;42.654;23.360;2023-01-28T07:06:10;94047.78;;;3.23;79.06
6389;BME280;3227;42.654;23.360;2023-01-28T07:08:37;94048.25;;;3.05;79.73
6389;BME280;3227;42.654;23.360;2023-01-28T07:11:06;94061.06;;;3.13;78.76
6389;BME280;3227;42.654;23.360;2023-01-28T07:13:34;94057.47;;;3.02;78.71
6389;BME280;3227;42.654;23.360;2023-01-28T07:16:01;94052.81;;;2.80;81.26
6389;BME280;3227;42.654;23.360;2023-01-28T07:18:28;94063.13;;;2.90;80.53
6389;BME280;3227;42.654;23.360;2023-01-28T07:20:55;94072.91;;;3.13;81.35
6389;BME280;3227;42.654;23.360;2023-01-28T07:23:22;94073.19;;;3.28;81.12
6389;BME280;3227;42.654;23.360;2023-01-28T07:25:49;94090.06;;;3.27;80.27
6389;BME280;3227;42.654;23.360;2023-01-28T07:28:16;94059.53;;;3.21;79.83
6389;BME280;3227;42.654;23.360;2023-01-28T07:30:48;94075.59;;;3.22;79.42
6389;BME280;3227;42.654;23.360;2023-01-28T07:33:15;94085.84;;;3.28;78.93
6389;BME280;3227;42.654;23.360;2023-01-28T07:35:43;94089.47;;;3.40;80.17
6389;BME280;3227;42.654;23.360;2023-01-28T07:38:14;94095.50;;;3.47;79.42
6389;BME280;3227;42.654;23.360;2023-01-28T07:40:41;94096.03;;;3.31;79.70
6389;BME280;3227;42.654;23.360;2023-01-28T07:43:10;94098.84;;;3.46;79.72
6389;BME280;3227;42.654;23.360;2023-01-28T07:45:37;94101.81;;;3.67;80.42
6389;BME280;3227;42.654;23.360;2023-01-28T07:48:07;94077.16;;;3.59;79.15
6389;BME280;3227;42.654;23.360;2023-01-28T07:50:35;94110.44;;;3.77;78.62
6389;BME280;3227;42.654;23.360;2023-01-28T07:53:03;94103.75;;;3.80;78.54
6389;BME280;3227;42.654;23.360;2023-01-28T07:55:30;94100.31;;;3.77;77.09
6389;BME280;3227;42.654;23.360;2023-01-28T07:58:00;94098.34;;;3.62;76.65
6389;BME280;3227;42.654;23.360;2023-01-28T08:00:29;94104.34;;;3.67;78.91
6389;BME280;3227;42.654;23.360;2023-01-28T08:02:57;94105.34;;;3.75;77.14
6389;BME280;3227;42.654;23.360;2023-01-28T08:05:29;94116.31;;;3.74;76.39
6389;BME280;3227;42.654;23.360;2023-01-28T08:07:58;93980.59;;;2.95;76.23
6389;BME280;3227;42.654;23.360;2023-01-28T08:10:25;94105.84;;;3.58;75.81
6389;BME280;3227;42.654;23.360;2023-01-28T08:12:52;94118.63;;;3.62;77.19
6389;BME280;3227;42.654;23.360;2023-01-28T08:15:19;93997.28;;;2.86;77.70
6389;BME280;3227;42.654;23.360;2023-01-28T08:17:46;94128.50;;;3.50;77.52
6389;BME280;3227;42.654;23.360;2023-01-28T08:20:13;94079.97;;;3.30;78.21
6389;BME280;3227;42.654;23.360;2023-01-28T08:22:42;94114.75;;;3.39;77.19
6389;BME280;3227;42.654;23.360;2023-01-28T08:25:08;94123.63;;;3.59;78.49
6389;BME280;3227;42.654;23.360;2023-01-28T08:27:35;94103.88;;;3.43;77.26
6389;BME280;3227;42.654;23.360;2023-01-28T08:30:03;94075.88;;;3.35;77.75
6389;BME280;3227;42.654;23.360;2023-01-28T08:32:30;94127.34;;;3.76;77.13
6389;BME280;3227;42.654;23.360;2023-01-28T08:34:58;94123.97;;;3.79;76.46
6389;BME280;3227;42.654;23.360;2023-01-28T08:37:25;94128.97;;;3.74;76.37
6389;BME280;3227;42.654;23.360;2023-01-28T08:39:53;94122.22;;;3.75;77.74
6389;BME280;3227;42.654;23.360;2023-01-28T08:42:20;94110.94;;;3.59;76.93
6389;BME280;3227;42.654;23.360;2023-01-28T08:44:47;94125.63;;;3.75;77.91
6389;BME280;3227;42.654;23.360;2023-01-28T08:47:14;94113.69;;;3.70;77.75
6389;BME280;3227;42.654;23.360;2023-01-28T08:49:41;94115.75;;;3.91;78.08
6389;BME280;3227;42.654;23.360;2023-01-28T08:52:07;94129.25;;;3.90;75.28
6389;BME280;3227;42.654;23.360;2023-01-28T08:54:35;94109.63;;;3.79;75.51
6389;BME280;3227;42.654;23.360;2023-01-28T08:57:03;94129.91;;;3.78;76.24
6389;BME280;3227;42.654;23.360;2023-01-28T08:59:30;94131.72;;;3.85;76.52
6389;BME280;3227;42.654;23.360;2023-01-28T09:01:57;94138.69;;;3.97;76.61
6389;BME280;3227;42.654;23.360;2023-01-28T09:04:23;94132.66;;;3.90;76.10
6389;BME280;3227;42.654;23.360;2023-01-28T09:06:50;94128.66;;;4.03;75.62
6389;BME280;3227;42.654;23.360;2023-01-28T09:09:17;94138.09;;;4.10;74.56
6389;BME280;3227;42.654;23.360;2023-01-28T09:11:44;94139.03;;;4.16;74.64
6389;BME280;3227;42.654;23.360;2023-01-28T09:14:12;94132.31;;;4.20;74.97
6389;BME280;3227;42.654;23.360;2023-01-28T09:16:39;94135.88;;;4.28;73.96
6389;BME280;3227;42.654;23.360;2023-01-28T09:19:05;94105.53;;;3.85;74.09
6389;BME280;3227;42.654;23.360;2023-01-28T09:21:32;94135.63;;;4.14;73.89
6389;BME280;3227;42.654;23.360;2023-01-28T09:23:59;94134.91;;;4.21;73.80
6389;BME280;3227;42.654;23.360;2023-01-28T09:26:26;94109.09;;;3.96;74.31
6389;BME280;3227;42.654;23.360;2023-01-28T09:28:53;94130.63;;;4.17;75.78
6389;BME280;3227;42.654;23.360;2023-01-28T09:31:21;94132.34;;;4.21;74.87
6389;BME280;3227;42.654;23.360;2023-01-28T09:33:48;94131.31;;;4.09;74.97
6389;BME280;3227;42.654;23.360;2023-01-28T09:36:21;94127.06;;;4.08;76.23
6389;BME280;3227;42.654;23.360;2023-01-28T09:38:47;94133.06;;;4.13;75.58
6389;BME280;3227;42.654;23.360;2023-01-28T09:41:23;94137.75;;;3.92;74.80
6389;BME280;3227;42.654;23.360;2023-01-28T09:44:02;94098.22;;;3.56;77.27
6389;BME280;3227;42.654;23.360;2023-01-28T09:46:34;94130.06;;;3.89;76.99
6389;BME280;3227;42.654;23.360;2023-01-28T09:49:04;94121.75;;;3.96;76.88
6389;BME280;3227;42.654;23.360;2023-01-28T09:51:39;94125.25;;;4.01;76.07
6389;BME280;3227;42.654;23.360;2023-01-28T09:54:27;94133.78;;;4.06;75.65
6389;BME280;3227;42.654;23.360;2023-01-28T09:57:00;94131.41;;;4.15;76.00
6389;BME280;3227;42.654;23.360;2023-01-28T09:59:32;94128.28;;;4.28;77.38
6389;BME280;3227;42.654;23.360;2023-01-28T10:02:17;94124.91;;;4.31;76.69
6389;BME280;3227;42.654;23.360;2023-01-28T10:05:02;94107.81;;;4.19;74.71
6389;BME280;3227;42.654;23.360;2023-01-28T10:07:36;94120.88;;;4.42;75.39
6389;BME280;3227;42.654;23.360;2023-01-28T10:10:08;94026.44;;;3.56;74.42
6389;BME280;3227;42.654;23.360;2023-01-28T10:12:47;94112.72;;;4.10;75.27
6389;BME280;3227;42.654;23.360;2023-01-28T10:15:49;94119.75;;;4.25;74.52
6389;BME280;3227;42.654;23.360;2023-01-28T10:18:29;94097.41;;;4.04;75.53
6389;BME280;3227;42.654;23.360;2023-01-28T10:21:04;94085.44;;;3.97;75.03
6389;BME280;3227;42.654;23.360;2023-01-28T10:23:50;94128.75;;;4.07;74.60
6389;BME280;3227;42.654;23.360;2023-01-28T10:26:22;94128.78;;;4.09;76.76
6389;BME280;3227;42.654;23.360;2023-01-28T10:28:53;94130.41;;;4.07;76.13
6389;BME280;3227;42.654;23.360;2023-01-28T10:31:22;94129.72;;;4.15;76.83
6389;BME280;3227;42.654;23.360;2023-01-28T10:33:55;94128.03;;;4.16;75.88
6389;BME280;3227;42.654;23.360;2023-01-28T10:36:22;94123.19;;;4.30;75.94
6389;BME280;3227;42.654;23.360;2023-01-28T10:38:50;94125.00;;;4.35;76.26
6389;BME280;3227;42.654;23.360;2023-01-28T10:41:20;94126.03;;;4.48;76.50
6389;BME280;3227;42.654;23.360;2023-01-28T10:43:48;94098.03;;;4.40;75.10
6389;BME280;3227;42.654;23.360;2023-01-28T10:46:18;94104.50;;;4.23;75.93
6389;BME280;3227;42.654;23.360;2023-01-28T10:48:54;94117.59;;;4.47;75.92
6389;BME280;3227;42.654;23.360;2023-01-28T10:51:31;94127.00;;;4.54;74.84
6389;BME280;3227;42.654;23.360;2023-01-28T10:53:59;94120.75;;;4.34;74.78
6389;BME280;3227;42.654;23.360;2023-01-28T10:56:28;94066.69;;;3.86;75.75
6389;BME280;3227;42.654;23.360;2023-01-28T10:58:59;94119.66;;;4.20;75.53
6389;BME280;3227;42.654;23.360;2023-01-28T11:01:38;94108.63;;;4.16;75.84
6389;BME280;3227;42.654;23.360;2023-01-28T11:04:12;94110.97;;;4.06;75.22
6389;BME280;3227;42.654;23.360;2023-01-28T11:06:41;94118.34;;;3.92;76.35
6389;BME280;3227;42.654;23.360;2023-01-28T11:09:21;94122.75;;;4.02;76.22
6389;BME280;3227;42.654;23.360;2023-01-28T11:11:48;94117.91;;;4.16;76.98
6389;BME280;3227;42.654;23.360;2023-01-28T11:14:23;94118.97;;;4.30;76.18
6389;BME280;3227;42.654;23.360;2023-01-28T11:16:52;94116.69;;;4.45;75.66
6389;BME280;3227;42.654;23.360;2023-01-28T11:19:21;94081.81;;;4.31;75.37
6389;BME280;3227;42.654;23.360;2023-01-28T11:21:55;94057.13;;;4.19;74.32
6389;BME280;3227;42.654;23.360;2023-01-28T11:24:27;94116.06;;;4.58;72.91
6389;BME280;3227;42.654;23.360;2023-01-28T11:26:57;94114.41;;;4.59;74.32
6389;BME280;3227;42.654;23.360;2023-01-28T11:29:30;94113.63;;;4.65;73.88
6389;BME280;3227;42.654;23.360;2023-01-28T11:31:58;94121.38;;;4.74;74.40
6389;BME280;3227;42.654;23.360;2023-01-28T11:34:29;94110.19;;;4.59;72.99
6389;BME280;3227;42.654;23.360;2023-01-28T11:37:03;94113.66;;;4.66;74.68
6389;BME280;3227;42.654;23.360;2023-01-28T11:39:31;94119.69;;;4.74;74.58
6389;BME280;3227;42.654;23.360;2023-01-28T11:42:11;94117.28;;;4.82;74.28
6389;BME280;3227;42.654;23.360;2023-01-28T11:44:39;94112.09;;;4.74;72.87
6389;BME280;3227;42.654;23.360;2023-01-28T11:47:35;94109.69;;;4.83;73.33
6389;BME280;3227;42.654;23.360;2023-01-28T11:50:23;94099.97;;;4.56;72.50
6389;BME280;3227;42.654;23.360;2023-01-28T11:53:06;94095.66;;;4.51;73.62
6389;BME280;3227;42.654;23.360;2023-01-28T11:55:47;94107.66;;;4.61;73.07
6389;BME280;3227;42.654;23.360;2023-01-28T11:58:21;94111.97;;;4.67;72.64
6389;BME280;3227;42.654;23.360;2023-01-28T12:01:00;94110.44;;;4.78;73.91
6389;BME280;3227;42.654;23.360;2023-01-28T12:03:42;94099.41;;;4.74;72.23
6389;BME280;3227;42.654;23.360;2023-01-28T12:06:33;94112.28;;;4.88;71.90
6389;BME280;3227;42.654;23.360;2023-01-28T12:09:14;94106.44;;;4.95;72.51
6389;BME280;3227;42.654;23.360;2023-01-28T12:11:54;94113.19;;;4.91;69.67
6389;BME280;3227;42.654;23.360;2023-01-28T12:17:50;94110.44;;;4.78;72.10
6389;BME280;3227;42.654;23.360;2023-01-28T12:20:24;94103.53;;;4.68;71.57
6389;BME280;3227;42.654;23.360;2023-01-28T12:23:21;94115.56;;;4.81;72.46
6389;BME280;3227;42.654;23.360;2023-01-28T12:26:04;94115.72;;;4.91;72.98
6389;BME280;3227;42.654;23.360;2023-01-28T12:28:53;94111.53;;;4.95;70.19
6389;BME280;3227;42.654;23.360;2023-01-28T12:31:49;94118.97;;;4.81;70.11
6389;BME280;3227;42.654;23.360;2023-01-28T12:37:17;94112.97;;;4.76;71.09
6389;BME280;3227;42.654;23.360;2023-01-28T12:39:55;94120.47;;;4.70;72.40
6389;BME280;3227;42.654;23.360;2023-01-28T12:42:32;94118.97;;;4.81;72.77
6389;BME280;3227;42.654;23.360;2023-01-28T12:45:22;94113.94;;;4.86;73.06
6389;BME280;3227;42.654;23.360;2023-01-28T12:47:53;94118.44;;;5.02;73.12
6389;BME280;3227;42.654;23.360;2023-01-28T12:50:24;94126.03;;;5.02;71.79
6389;BME280;3227;42.654;23.360;2023-01-28T12:52:54;94102.25;;;4.94;72.79
6389;BME280;3227;42.654;23.360;2023-01-28T12:55:34;94131.97;;;5.04;70.35
6389;BME280;3227;42.654;23.360;2023-01-28T12:58:04;94136.19;;;5.02;71.59
6389;BME280;3227;42.654;23.360;2023-01-28T13:00:34;94141.28;;;5.04;73.05
6389;BME280;3227;42.654;23.360;2023-01-28T13:03:10;94105.38;;;4.79;72.77
6389;BME280;3227;42.654;23.360;2023-01-28T13:05:43;94150.59;;;5.03;71.33
6389;BME280;3227;42.654;23.360;2023-01-28T13:08:16;94139.22;;;4.80;71.82
6389;BME280;3227;42.654;23.360;2023-01-28T13:10:50;94138.34;;;4.76;73.02
6389;BME280;3227;42.654;23.360;2023-01-28T13:13:33;94135.09;;;4.85;73.87
6389;BME280;3227;42.654;23.360;2023-01-28T13:16:02;94148.00;;;5.00;72.00
6389;BME280;3227;42.654;23.360;2023-01-28T13:18:33;94112.91;;;4.73;72.95
6389;BME280;3227;42.654;23.360;2023-01-28T13:21:04;94065.06;;;4.40;72.82
6389;BME280;3227;42.654;23.360;2023-01-28T13:23:39;94152.84;;;4.83;72.45
6389;BME280;3227;42.654;23.360;2023-01-28T13:26:26;94157.94;;;4.85;71.88
6389;BME280;3227;42.654;23.360;2023-01-28T13:29:06;94146.09;;;4.87;74.57
6389;BME280;3227;42.654;23.360;2023-01-28T13:31:43;94159.97;;;5.07;72.89
6389;BME280;3227;42.654;23.360;2023-01-28T13:34:28;94152.91;;;4.88;71.41
6389;BME280;3227;42.654;23.360;2023-01-28T13:37:00;94166.38;;;4.84;71.50
6389;BME280;3227;42.654;23.360;2023-01-28T13:39:28;94119.25;;;4.47;72.88
6389;BME280;3227;42.654;23.360;2023-01-28T13:42:08;94177.38;;;4.83;73.30
6389;BME280;3227;42.654;23.360;2023-01-28T13:44:37;94172.09;;;4.72;72.67
6389;BME280;3227;42.654;23.360;2023-01-28T13:47:19;94172.19;;;4.78;72.67
6389;BME280;3227;42.654;23.360;2023-01-28T13:49:48;94174.59;;;4.68;72.83